Time;durP1;ratioP1;P1;durP2;ratioP2;P2;SDS_P1;SDS_P2;PMS_P1;PMS_P2;Temp;Humidity;BMP_temperature;BMP_pressure;BME280_temperature;BME280_humidity;BME280_pressure;Samples;Min_cycle;Max_cycle;Signal;HPM_P1;HPM_P2
2021/06/22 04:01:00;;;;;;;10.48;8.05;;;13.80;99.90;;;;;;5672881;23;20233;-67
2021/06/22 04:03:27;;;;;;;10.55;7.30;;;13.80;99.90;;;;;;4936553;29;20615;-67
2021/06/22 04:05:54;;;;;;;11.50;7.10;;;13.80;99.90;;;;;;4936583;28;20225;-68
2021/06/22 04:08:21;;;;;;;11.13;7.43;;;13.80;99.90;;;;;;4936206;29;20202;-68
2021/06/22 04:10:47;;;;;;;11.50;7.22;;;13.80;99.90;;;;;;4936056;29;20504;-69
2021/06/22 04:13:14;;;;;;;10.48;7.85;;;13.90;99.90;;;;;;4936852;29;20210;-70
2021/06/22 04:15:41;;;;;;;8.20;7.32;;;13.90;99.90;;;;;;4936567;29;20692;-70
2021/06/22 04:18:10;;;;;;;8.67;7.77;;;13.90;99.90;;;;;;4937053;29;20587;-70
2021/06/22 04:20:38;;;;;;;12.15;7.45;;;13.90;99.90;;;;;;4935167;29;20552;-72
2021/06/22 04:23:06;;;;;;;9.25;6.90;;;14.00;99.90;;;;;;4934863;29;20228;-70
2021/06/22 04:25:33;;;;;;;11.20;6.83;;;14.00;99.90;;;;;;4936151;29;20587;-69
2021/06/22 04:28:00;;;;;;;12.32;6.95;;;14.00;99.90;;;;;;4935973;29;20472;-69
2021/06/22 04:30:27;;;;;;;8.25;7.25;;;14.00;99.90;;;;;;4936079;28;20233;-69
2021/06/22 04:32:53;;;;;;;7.80;7.00;;;14.00;99.90;;;;;;4936097;29;20668;-69
2021/06/22 04:35:21;;;;;;;8.05;6.00;;;14.00;99.90;;;;;;4935896;29;20461;-69
2021/06/22 04:37:48;;;;;;;8.57;6.80;;;14.00;99.90;;;;;;4920687;29;20580;-69
2021/06/22 04:40:15;;;;;;;18.55;7.72;;;14.00;99.90;;;;;;4927693;29;20565;-69
2021/06/22 04:42:42;;;;;;;12.23;8.03;;;14.00;99.90;;;;;;4935958;29;20218;-70
2021/06/22 04:45:09;;;;;;;10.65;6.60;;;14.00;99.90;;;;;;4924142;29;20548;-70
2021/06/22 04:47:37;;;;;;;7.37;6.57;;;14.00;99.90;;;;;;4935610;29;20210;-70
2021/06/22 04:50:05;;;;;;;8.77;7.50;;;14.10;99.90;;;;;;4935598;29;20474;-69
2021/06/22 04:52:33;;;;;;;7.13;6.43;;;14.20;99.90;;;;;;4924244;29;20489;-69
2021/06/22 04:55:00;;;;;;;7.50;6.73;;;14.20;99.90;;;;;;4935347;29;20946;-69
2021/06/22 04:57:27;;;;;;;10.97;7.53;;;14.20;99.90;;;;;;4935111;29;20457;-70
2021/06/22 04:59:53;;;;;;;11.47;8.23;;;14.30;99.90;;;;;;4936106;29;20557;-68
2021/06/22 05:02:20;;;;;;;7.77;6.47;;;14.30;99.90;;;;;;4935082;29;20489;-69
2021/06/22 05:04:48;;;;;;;11.50;7.83;;;14.40;99.90;;;;;;4935288;29;20461;-69
2021/06/22 05:07:14;;;;;;;7.47;6.83;;;14.40;99.90;;;;;;4929034;29;20462;-71
2021/06/22 05:09:42;;;;;;;8.20;7.30;;;14.50;99.90;;;;;;4927265;29;20469;-70
2021/06/22 05:12:10;;;;;;;7.30;6.60;;;14.60;99.90;;;;;;4935272;29;20477;-70
2021/06/22 05:14:37;;;;;;;7.93;6.80;;;14.70;99.90;;;;;;4918829;29;20469;-70
2021/06/22 05:17:04;;;;;;;9.33;6.60;;;14.80;99.90;;;;;;4933176;29;20462;-71
2021/06/22 05:19:30;;;;;;;7.87;6.73;;;14.90;99.90;;;;;;4935184;29;20464;-71
2021/06/22 05:21:57;;;;;;;6.20;5.60;;;15.00;99.90;;;;;;4935639;29;20493;-70
2021/06/22 05:24:24;;;;;;;6.27;5.73;;;15.10;99.90;;;;;;4933233;29;20470;-71
2021/06/22 05:26:52;;;;;;;9.57;6.53;;;15.10;99.90;;;;;;4935693;29;20472;-71
2021/06/22 05:29:18;;;;;;;11.33;6.40;;;15.20;99.90;;;;;;4926705;29;20970;-70
2021/06/22 05:31:45;;;;;;;7.73;5.67;;;15.10;99.90;;;;;;4917059;29;20979;-70
2021/06/22 05:34:11;;;;;;;8.97;4.93;;;15.20;99.90;;;;;;4934485;29;20984;-70
2021/06/22 05:36:38;;;;;;;5.80;5.40;;;15.20;99.90;;;;;;4935722;29;20470;-71
2021/06/22 05:39:05;;;;;;;9.93;7.13;;;15.20;99.90;;;;;;4928631;29;20963;-68
2021/06/22 05:41:32;;;;;;;5.97;5.37;;;15.30;99.90;;;;;;4921677;29;20485;-71
2021/06/22 05:44:00;;;;;;;6.90;4.70;;;15.50;99.90;;;;;;4933714;29;20504;-71
2021/06/22 05:46:26;;;;;;;5.40;4.90;;;15.70;99.90;;;;;;4930385;29;20861;-69
2021/06/22 05:48:53;;;;;;;7.17;4.70;;;15.90;99.90;;;;;;4926408;29;20845;-69
2021/06/22 05:51:20;;;;;;;5.47;4.40;;;16.00;99.90;;;;;;4935403;29;20989;-69
2021/06/22 05:53:46;;;;;;;5.03;4.33;;;16.20;99.90;;;;;;4933296;28;20482;-69
2021/06/22 05:56:13;;;;;;;5.30;4.60;;;16.30;99.90;;;;;;4932820;29;20470;-70
2021/06/22 05:58:40;;;;;;;10.57;5.10;;;16.50;99.90;;;;;;4928726;29;20477;-70
2021/06/22 06:01:08;;;;;;;6.47;4.30;;;16.80;99.90;;;;;;4941920;28;20860;-70
2021/06/22 06:03:34;;;;;;;7.37;3.80;;;17.00;99.90;;;;;;4937087;29;20482;-71
2021/06/22 06:06:01;;;;;;;4.77;4.03;;;17.70;99.90;;;;;;4934765;29;20466;-69
2021/06/22 06:08:29;;;;;;;6.93;4.30;;;18.10;99.90;;;;;;4934298;29;20535;-69
2021/06/22 06:10:56;;;;;;;3.90;3.60;;;18.20;99.90;;;;;;4933218;29;20993;-69
2021/06/22 06:13:30;;;;;;;5.60;3.97;;;18.10;99.90;;;;;;4933157;29;20973;-71
2021/06/22 06:15:56;;;;;;;6.33;4.00;;;17.80;99.90;;;;;;4931256;28;20585;-68
2021/06/22 06:18:25;;;;;;;5.00;4.57;;;17.40;99.90;;;;;;4934754;29;20458;-69
2021/06/22 06:20:51;;;;;;;5.53;4.50;;;17.20;99.90;;;;;;4934792;29;20474;-69
2021/06/22 06:23:18;;;;;;;6.23;4.90;;;17.00;99.90;;;;;;4933921;29;20477;-70
2021/06/22 06:25:46;;;;;;;5.13;4.63;;;16.90;99.90;;;;;;4934321;29;20458;-72
2021/06/22 06:28:15;;;;;;;8.70;5.00;;;16.80;99.90;;;;;;4936665;29;20957;-72
2021/06/22 06:30:42;;;;;;;5.33;4.93;;;16.70;99.90;;;;;;4938000;28;20493;-72
2021/06/22 06:33:09;;;;;;;5.00;4.60;;;16.70;99.90;;;;;;4938496;29;20469;-72
2021/06/22 06:35:37;;;;;;;6.13;4.17;;;16.70;99.90;;;;;;4938174;29;20535;-72
2021/06/22 06:38:04;;;;;;;5.63;4.47;;;16.80;99.90;;;;;;4935110;29;20585;-71
2021/06/22 06:40:31;;;;;;;6.93;4.50;;;16.90;99.90;;;;;;4937144;28;20492;-71
2021/06/22 06:42:57;;;;;;;4.43;4.13;;;16.80;99.90;;;;;;4937517;29;20501;-71
2021/06/22 06:45:24;;;;;;;4.60;4.20;;;16.90;99.90;;;;;;4936923;29;20986;-71
2021/06/22 06:47:51;;;;;;;8.13;4.27;;;17.00;99.90;;;;;;4932312;29;20836;-71
2021/06/22 06:50:18;;;;;;;5.37;4.03;;;17.00;99.90;;;;;;4937528;29;20468;-71
2021/06/22 06:52:46;;;;;;;5.27;4.10;;;17.20;99.90;;;;;;4937392;29;20549;-71
2021/06/22 06:55:26;;;;;;;4.90;3.70;;;17.40;99.90;;;;;;4937509;29;20468;-70
2021/06/22 06:57:54;;;;;;;4.10;3.63;;;17.40;99.90;;;;;;4930484;29;20473;-71
2021/06/22 07:00:22;;;;;;;4.47;3.30;;;18.00;99.90;;;;;;4938309;29;20465;-72
2021/06/22 07:02:48;;;;;;;3.10;3.00;;;19.10;99.90;;;;;;4936991;29;20496;-72
2021/06/22 07:05:15;;;;;;;6.23;3.37;;;19.30;99.90;;;;;;4937577;29;20472;-72
2021/06/22 07:07:42;;;;;;;4.30;3.30;;;19.20;99.90;;;;;;4930573;29;20468;-71
2021/06/22 07:10:12;;;;;;;3.33;3.00;;;19.10;99.90;;;;;;4937583;29;20468;-72
2021/06/22 07:12:38;;;;;;;3.47;3.13;;;18.90;99.90;;;;;;4937529;29;20461;-71
2021/06/22 07:15:07;;;;;;;5.10;3.37;;;18.60;99.90;;;;;;4937796;29;20477;-72
2021/06/22 07:17:33;;;;;;;5.03;3.57;;;18.60;99.90;;;;;;4936735;29;20476;-71
2021/06/22 07:20:00;;;;;;;6.47;3.40;;;18.50;99.90;;;;;;4934765;29;20520;-71
2021/06/22 07:22:27;;;;;;;6.50;2.90;;;19.20;99.90;;;;;;4937254;29;20849;-71
2021/06/22 07:24:54;;;;;;;6.60;3.03;;;19.70;99.90;;;;;;4937500;29;20507;-71
2021/06/22 07:27:22;;;;;;;3.50;3.27;;;19.60;99.90;;;;;;4937091;29;20485;-71
2021/06/22 07:29:49;;;;;;;4.47;2.70;;;19.20;99.90;;;;;;4937426;29;20469;-71
2021/06/22 07:32:15;;;;;;;5.53;2.70;;;18.90;99.90;;;;;;4937057;29;21020;-71
2021/06/22 07:34:42;;;;;;;6.57;3.13;;;18.70;99.90;;;;;;4936934;29;20473;-70
2021/06/22 07:37:09;;;;;;;3.63;3.20;;;18.50;99.90;;;;;;4937025;28;20486;-72
2021/06/22 07:39:35;;;;;;;4.10;3.70;;;18.20;99.90;;;;;;4935713;29;20966;-71
2021/06/22 07:42:03;;;;;;;3.47;3.10;;;18.20;99.90;;;;;;4937086;29;20489;-70
2021/06/22 07:44:31;;;;;;;3.10;2.90;;;18.20;99.90;;;;;;4936983;29;20569;-71
2021/06/22 07:46:58;;;;;;;3.10;3.00;;;18.40;99.90;;;;;;4934890;28;20482;-72
2021/06/22 07:49:24;;;;;;;3.10;2.57;;;19.10;99.90;;;;;;4936720;29;20854;-72
2021/06/22 07:51:51;;;;;;;2.63;2.53;;;19.70;99.90;;;;;;4937233;29;20534;-71
2021/06/22 07:54:18;;;;;;;2.83;2.63;;;19.60;99.90;;;;;;4932411;29;20966;-72
2021/06/22 07:56:45;;;;;;;3.03;2.90;;;19.40;99.90;;;;;;4937104;29;20466;-71
2021/06/22 07:59:11;;;;;;;3.83;3.40;;;19.20;99.90;;;;;;4932322;29;20474;-70
2021/06/22 08:01:39;;;;;;;5.40;3.20;;;18.90;99.90;;;;;;4937138;29;20501;-70
2021/06/22 08:04:06;;;;;;;4.03;3.17;;;18.60;99.90;;;;;;4935555;29;20485;-70
2021/06/22 08:06:33;;;;;;;5.57;3.23;;;18.50;99.90;;;;;;4918341;29;20470;-71
2021/06/22 08:08:59;;;;;;;4.40;3.53;;;18.50;99.90;;;;;;4920538;29;20977;-71
2021/06/22 08:11:26;;;;;;;3.57;3.27;;;19.40;99.90;;;;;;4934759;29;20500;-72
2021/06/22 08:13:53;;;;;;;7.67;2.50;;;20.40;99.90;;;;;;4936011;29;20477;-71
2021/06/22 08:16:20;;;;;;;2.97;2.77;;;21.00;99.90;;;;;;4937063;29;20470;-70
2021/06/22 08:18:48;;;;;;;4.50;3.10;;;21.10;99.90;;;;;;4936484;29;20501;-72
2021/06/22 08:21:15;;;;;;;22.23;6.67;;;20.50;99.90;;;;;;4936106;29;20798;-72
2021/06/22 08:23:41;;;;;;;5.47;3.73;;;20.10;99.90;;;;;;4935845;29;20481;-73
2021/06/22 08:26:08;;;;;;;18.30;5.70;;;19.80;99.90;;;;;;4936006;29;20458;-71
2021/06/22 08:28:35;;;;;;;3.67;3.30;;;19.40;99.90;;;;;;4935906;29;20470;-70
2021/06/22 08:31:01;;;;;;;5.07;3.73;;;19.30;99.90;;;;;;4936186;29;20485;-72
2021/06/22 08:33:28;;;;;;;3.27;2.97;;;19.00;99.90;;;;;;4936405;29;20465;-71
2021/06/22 08:35:56;;;;;;;4.70;3.57;;;19.00;99.90;;;;;;4935831;28;20486;-72
2021/06/22 08:38:23;;;;;;;3.47;3.17;;;19.00;99.90;;;;;;4936263;29;20477;-72
2021/06/22 08:40:49;;;;;;;3.83;3.63;;;19.30;99.90;;;;;;4935353;29;20490;-71
2021/06/22 08:43:17;;;;;;;3.77;3.50;;;19.30;99.90;;;;;;4935905;29;20600;-72
2021/06/22 08:45:46;;;;;;;3.70;3.30;;;19.60;99.90;;;;;;4935887;29;20470;-70
2021/06/22 08:48:13;;;;;;;3.93;3.47;;;20.00;99.90;;;;;;4930395;28;20489;-72
2021/06/22 08:50:41;;;;;;;3.77;3.43;;;20.00;99.90;;;;;;4935008;29;20482;-70
2021/06/22 08:53:10;;;;;;;6.10;4.33;;;19.70;99.90;;;;;;4927666;29;20467;-72
2021/06/22 08:55:37;;;;;;;6.70;4.53;;;19.50;99.90;;;;;;4916485;29;20971;-72
2021/06/22 08:58:06;;;;;;;4.63;4.33;;;20.00;99.90;;;;;;4923127;28;20489;-72
2021/06/22 09:00:36;;;;;;;4.67;4.40;;;20.50;99.90;;;;;;4935850;29;20505;-71
2021/06/22 09:03:06;;;;;;;4.90;4.50;;;21.30;99.90;;;;;;4934737;29;20823;-71
2021/06/22 09:05:33;;;;;;;3.73;3.53;;;21.60;99.90;;;;;;4936350;29;20808;-72
2021/06/22 09:08:00;;;;;;;4.90;3.90;;;21.30;99.90;;;;;;4930412;29;20470;-71
2021/06/22 09:10:30;;;;;;;4.40;4.20;;;20.80;99.90;;;;;;4931721;29;20497;-71
2021/06/22 09:13:15;;;;;;;4.87;4.47;;;20.20;99.90;;;;;;5145356;27;20360;-72
2021/06/22 09:15:46;;;;;;;5.57;5.27;;;20.00;99.90;;;;;;5130740;28;20452;-72
2021/06/22 09:18:31;;;;;;;4.97;4.67;;;19.80;99.90;;;;;;5130290;28;20932;-69
2021/06/22 09:20:59;;;;;;;4.00;3.80;;;20.00;99.90;;;;;;5129701;27;20480;-69
2021/06/22 09:23:29;;;;;;;4.37;4.07;;;20.40;99.90;;;;;;5129111;27;20453;-70
2021/06/22 09:25:57;;;;;;;6.67;3.80;;;21.00;99.90;;;;;;5129684;28;20563;-71
2021/06/22 09:28:28;;;;;;;4.97;3.47;;;21.20;99.90;;;;;;5129842;27;20909;-70
2021/06/22 09:30:58;;;;;;;4.27;3.77;;;21.30;99.90;;;;;;5129505;27;20567;-69
2021/06/22 09:33:33;;;;;;;5.90;3.73;;;21.10;99.90;;;;;;5129734;27;20459;-73
2021/06/22 09:36:03;;;;;;;4.33;4.00;;;21.20;99.90;;;;;;5130639;28;20467;-72
2021/06/22 09:38:32;;;;;;;7.57;4.03;;;20.80;99.90;;;;;;5130176;27;20818;-71
2021/06/22 09:41:12;;;;;;;3.60;3.30;;;20.70;99.90;;;;;;5129869;27;20571;-72
2021/06/22 09:43:44;;;;;;;4.83;4.40;;;20.70;99.90;;;;;;5130369;27;20882;-71
2021/06/22 09:46:13;;;;;;;4.40;4.00;;;20.50;99.90;;;;;;5128301;27;20453;-72
2021/06/22 09:48:46;;;;;;;5.47;3.80;;;20.50;99.90;;;;;;5128593;27;20861;-71
2021/06/22 09:51:13;;;;;;;7.30;4.70;;;20.20;99.90;;;;;;5130212;28;20500;-72
2021/06/22 09:53:40;;;;;;;6.53;4.73;;;20.20;99.90;;;;;;5129766;27;20457;-72
2021/06/22 09:56:21;;;;;;;5.80;5.40;;;20.20;99.90;;;;;;5130645;27;20463;-73
2021/06/22 09:58:50;;;;;;;8.40;5.60;;;20.10;99.90;;;;;;5131052;27;20467;-73
2021/06/22 10:01:33;;;;;;;7.07;5.83;;;20.10;99.90;;;;;;5130218;28;20465;-69
2021/06/22 10:04:19;;;;;;;6.73;5.60;;;20.20;99.90;;;;;;5129453;27;20904;-69
2021/06/22 10:06:53;;;;;;;16.23;4.97;;;20.50;99.90;;;;;;5130043;27;20968;-71
2021/06/22 10:09:26;;;;;;;5.00;4.63;;;20.70;99.90;;;;;;5123113;27;20463;-71
2021/06/22 10:12:00;;;;;;;6.70;5.03;;;21.10;99.90;;;;;;5129390;27;20516;-70
2021/06/22 10:14:31;;;;;;;4.73;4.43;;;21.30;99.90;;;;;;5130183;27;20828;-71
2021/06/22 10:17:00;;;;;;;5.00;4.70;;;21.20;99.90;;;;;;5129784;27;20468;-69
2021/06/22 10:19:27;;;;;;;6.93;4.00;;;21.00;99.90;;;;;;5129201;28;20471;-72
2021/06/22 10:21:55;;;;;;;5.57;5.23;;;20.70;99.90;;;;;;5129282;28;20472;-71
2021/06/22 10:24:23;;;;;;;6.07;5.60;;;20.60;99.90;;;;;;5116039;28;20830;-70
2021/06/22 10:26:51;;;;;;;6.10;5.60;;;20.50;99.90;;;;;;5116352;28;20457;-69
2021/06/22 10:29:20;;;;;;;7.63;7.13;;;20.40;99.90;;;;;;5115802;27;20465;-72
2021/06/22 10:31:49;;;;;;;5.73;5.03;;;20.30;99.90;;;;;;5115386;28;20481;-68
2021/06/22 10:34:16;;;;;;;5.13;4.80;;;20.30;99.90;;;;;;5115065;28;20869;-69
2021/06/22 10:36:51;;;;;;;5.00;3.70;;;20.30;99.90;;;;;;5115574;28;20549;-69
2021/06/22 10:39:23;;;;;;;3.80;3.23;;;20.30;99.90;;;;;;5114314;27;21010;-67
2021/06/22 10:41:50;;;;;;;4.07;3.70;;;20.20;99.90;;;;;;5114759;28;20865;-66
2021/06/22 10:44:41;;;;;;;3.17;2.87;;;20.10;99.90;;;;;;5114985;28;20466;-66
2021/06/22 10:47:18;;;;;;;4.83;2.80;;;20.40;99.90;;;;;;5108662;28;20906;-67
2021/06/22 10:50:01;;;;;;;3.23;3.10;;;20.50;99.90;;;;;;5094602;28;20881;-67
2021/06/22 10:52:52;;;;;;;3.70;3.40;;;20.90;99.90;;;;;;5109851;28;20485;-67
2021/06/22 10:55:21;;;;;;;3.83;3.60;;;21.00;99.90;;;;;;5114888;28;20462;-67
2021/06/22 10:58:11;;;;;;;5.00;3.20;;;21.10;99.90;;;;;;5115220;28;20459;-65
2021/06/22 11:01:13;;;;;;;3.23;3.10;;;21.10;99.90;;;;;;5115661;28;20564;-66
2021/06/22 11:03:41;;;;;;;3.03;2.80;;;21.10;99.90;;;;;;5092277;28;20464;-67
2021/06/22 11:06:29;;;;;;;3.50;3.03;;;21.10;99.90;;;;;;5097253;28;20461;-67
2021/06/22 11:09:18;;;;;;;3.97;3.73;;;20.90;99.90;;;;;;5113999;28;20459;-65
2021/06/22 11:11:45;;;;;;;6.60;3.40;;;20.70;99.90;;;;;;5111595;27;20515;-65
2021/06/22 11:14:13;;;;;;;3.13;3.03;;;20.80;99.90;;;;;;5113823;27;20477;-66
2021/06/22 11:16:41;;;;;;;3.53;3.33;;;21.10;99.90;;;;;;5106686;28;20462;-64
2021/06/22 11:19:13;;;;;;;3.60;3.20;;;21.40;99.90;;;;;;5107964;27;20727;-65
2021/06/22 11:21:53;;;;;;;6.60;3.80;;;21.70;99.90;;;;;;5110758;27;20478;-65
2021/06/22 11:24:21;;;;;;;3.83;3.73;;;21.70;99.90;;;;;;5098424;28;20457;-65
2021/06/22 11:27:00;;;;;;;3.90;3.70;;;21.90;99.90;;;;;;5104029;27;20978;-65
2021/06/22 11:29:46;;;;;;;3.93;3.60;;;21.90;99.90;;;;;;5103122;28;20461;-65
2021/06/22 11:32:32;;;;;;;4.03;3.90;;;21.70;99.90;;;;;;5111648;28;20496;-65
2021/06/22 11:35:00;;;;;;;4.70;4.00;;;21.60;99.90;;;;;;5103775;28;20565;-66
2021/06/22 11:37:28;;;;;;;4.80;4.40;;;21.60;99.90;;;;;;5114931;27;21018;-66
2021/06/22 11:40:04;;;;;;;5.97;4.20;;;21.40;99.90;;;;;;5112633;28;20485;-65
2021/06/22 11:42:35;;;;;;;4.73;4.40;;;21.40;99.90;;;;;;5111699;28;20484;-65
2021/06/22 11:45:22;;;;;;;3.97;3.73;;;21.40;99.90;;;;;;5115061;27;20548;-65
2021/06/22 11:47:54;;;;;;;3.80;3.50;;;21.30;99.90;;;;;;5115321;27;20493;-65
2021/06/22 11:50:24;;;;;;;4.30;3.90;;;20.90;99.90;;;;;;5105465;27;20468;-67
2021/06/22 11:53:20;;;;;;;3.93;3.67;;;20.90;99.90;;;;;;5126521;27;20481;-67
2021/06/22 11:55:52;;;;;;;3.83;3.53;;;21.00;99.90;;;;;;5106897;27;20452;-66
2021/06/22 11:58:24;;;;;;;3.17;3.07;;;21.20;99.90;;;;;;5121008;27;20534;-67
2021/06/22 12:00:56;;;;;;;6.57;3.73;;;21.50;99.90;;;;;;5120082;27;20546;-66
2021/06/22 12:03:33;;;;;;;3.57;3.27;;;21.70;99.90;;;;;;5124012;27;20460;-67
2021/06/22 12:06:10;;;;;;;6.10;4.40;;;21.80;99.90;;;;;;5119035;27;20489;-67
2021/06/22 12:08:38;;;;;;;4.27;3.87;;;22.00;99.90;;;;;;5114531;27;20449;-67
2021/06/22 12:11:05;;;;;;;3.77;3.57;;;21.80;99.90;;;;;;5120421;27;20504;-66
2021/06/22 12:13:40;;;;;;;3.70;3.40;;;21.80;99.90;;;;;;5123437;27;20537;-66
2021/06/22 12:16:19;;;;;;;4.10;3.83;;;21.80;99.90;;;;;;5113364;28;20465;-66
2021/06/22 12:18:46;;;;;;;3.40;3.10;;;21.90;99.90;;;;;;5113919;27;20467;-66
2021/06/22 12:21:15;;;;;;;7.27;3.33;;;22.00;99.90;;;;;;5130649;27;20842;-66
2021/06/22 12:23:42;;;;;;;3.97;3.20;;;21.90;99.90;;;;;;5113128;27;20469;-66
2021/06/22 12:26:10;;;;;;;3.30;3.00;;;21.80;99.90;;;;;;5109355;27;20453;-66
2021/06/22 12:28:37;;;;;;;3.67;3.37;;;21.70;99.90;;;;;;5129618;27;20467;-66
2021/06/22 12:31:06;;;;;;;3.43;3.13;;;21.90;99.90;;;;;;5120337;27;20492;-66
2021/06/22 12:33:38;;;;;;;4.07;3.00;;;21.90;99.90;;;;;;5119772;27;20480;-66
2021/06/22 12:36:07;;;;;;;4.17;3.87;;;22.00;99.90;;;;;;5124532;27;20448;-66
2021/06/22 12:38:37;;;;;;;3.70;3.47;;;22.00;99.90;;;;;;5126036;27;20794;-67
2021/06/22 12:41:06;;;;;;;3.33;3.03;;;22.00;99.90;;;;;;5114345;27;20991;-67
2021/06/22 12:43:48;;;;;;;4.60;3.50;;;22.10;99.90;;;;;;5125903;27;20454;-67
2021/06/22 12:46:16;;;;;;;4.63;3.57;;;22.00;99.90;;;;;;5109064;27;20480;-67
2021/06/22 12:48:43;;;;;;;3.70;3.00;;;22.10;99.90;;;;;;5112409;27;20464;-67
2021/06/22 12:51:11;;;;;;;3.80;3.50;;;21.90;99.90;;;;;;5113906;27;20983;-67
2021/06/22 12:53:40;;;;;;;4.00;3.70;;;21.70;99.90;;;;;;5123573;27;20519;-67
2021/06/22 12:56:09;;;;;;;4.30;3.90;;;21.70;99.90;;;;;;5127613;27;20479;-67
2021/06/22 12:58:50;;;;;;;8.57;4.10;;;21.70;99.90;;;;;;5126164;27;20538;-66
2021/06/22 13:01:34;;;;;;;3.80;3.50;;;21.60;99.90;;;;;;5113107;27;20550;-68
2021/06/22 13:04:03;;;;;;;3.30;3.10;;;21.70;99.90;;;;;;5112422;28;20967;-67
2021/06/22 13:06:31;;;;;;;6.13;3.83;;;21.60;99.90;;;;;;5112968;28;20464;-66
2021/06/22 13:09:01;;;;;;;3.53;3.43;;;21.60;99.90;;;;;;5112783;28;20549;-66
2021/06/22 13:11:29;;;;;;;5.33;3.97;;;21.50;99.90;;;;;;5107088;27;20522;-66
2021/06/22 13:14:14;;;;;;;3.77;3.60;;;21.60;99.90;;;;;;5112456;28;20856;-66
2021/06/22 13:16:42;;;;;;;5.57;3.60;;;21.50;99.90;;;;;;5112579;28;20867;-66
2021/06/22 13:19:10;;;;;;;4.23;3.27;;;21.50;99.90;;;;;;5112950;28;20816;-67
2021/06/22 13:21:42;;;;;;;7.50;3.80;;;21.50;99.90;;;;;;5112280;27;20988;-67
2021/06/22 13:24:12;;;;;;;3.07;2.80;;;21.50;99.90;;;;;;5111974;28;20442;-67
2021/06/22 13:26:40;;;;;;;4.37;3.63;;;21.70;99.90;;;;;;5112093;28;20815;-67
2021/06/22 13:29:07;;;;;;;4.10;3.70;;;21.90;99.90;;;;;;5103633;28;20461;-67
2021/06/22 13:31:35;;;;;;;4.23;3.83;;;21.90;99.90;;;;;;5092310;28;20864;-67
2021/06/22 13:34:04;;;;;;;2.80;2.60;;;21.90;99.90;;;;;;5090773;28;20490;-67
2021/06/22 13:36:31;;;;;;;3.20;3.00;;;22.00;99.90;;;;;;5101509;28;20468;-68
2021/06/22 13:39:06;;;;;;;3.20;3.10;;;22.00;99.90;;;;;;5091859;28;20462;-68
2021/06/22 13:41:49;;;;;;;5.40;4.10;;;21.80;99.90;;;;;;5091458;28;20565;-68
2021/06/22 13:44:37;;;;;;;3.57;3.30;;;21.80;99.90;;;;;;5091438;28;20557;-68
2021/06/22 13:47:05;;;;;;;4.07;3.37;;;21.90;99.90;;;;;;5112421;28;20479;-70
2021/06/22 13:49:41;;;;;;;5.73;3.63;;;22.10;99.90;;;;;;5113129;28;20941;-69
2021/06/22 13:52:10;;;;;;;4.77;2.83;;;22.20;99.90;;;;;;5111904;28;20481;-69
2021/06/22 13:54:52;;;;;;;5.00;3.63;;;22.20;99.90;;;;;;5110839;27;20501;-69
2021/06/22 13:57:19;;;;;;;5.70;3.23;;;22.20;99.90;;;;;;5095062;28;20796;-70
2021/06/22 13:59:47;;;;;;;3.73;3.40;;;22.00;99.90;;;;;;5115751;28;20472;-70
2021/06/22 14:02:14;;;;;;;4.33;3.33;;;21.70;99.90;;;;;;5115723;28;20478;-70
2021/06/22 14:04:42;;;;;;;3.00;2.80;;;21.60;99.90;;;;;;5115068;27;20466;-68
2021/06/22 14:07:09;;;;;;;3.90;3.50;;;21.60;99.90;;;;;;5115781;28;20453;-68
2021/06/22 14:09:36;;;;;;;4.37;3.37;;;21.70;99.90;;;;;;5108810;28;20769;-68
2021/06/22 14:12:03;;;;;;;3.30;3.10;;;21.80;99.90;;;;;;5115499;28;20499;-68
2021/06/22 14:14:29;;;;;;;3.60;3.30;;;22.10;99.90;;;;;;5115285;28;20600;-67
2021/06/22 14:16:57;;;;;;;2.93;2.83;;;22.30;99.90;;;;;;5114819;27;20469;-68
2021/06/22 14:19:24;;;;;;;2.87;2.63;;;22.40;99.90;;;;;;5115814;28;20464;-71
2021/06/22 14:21:53;;;;;;;4.20;3.27;;;22.40;99.90;;;;;;5114814;28;21061;-70
2021/06/22 14:24:19;;;;;;;3.30;3.10;;;22.40;99.90;;;;;;5112276;28;20557;-70
2021/06/22 14:26:46;;;;;;;3.43;2.80;;;22.40;99.90;;;;;;5115262;28;20457;-70
2021/06/22 14:29:13;;;;;;;3.87;3.40;;;22.40;99.90;;;;;;5115605;27;20469;-69
2021/06/22 14:31:42;;;;;;;3.20;2.87;;;22.20;99.90;;;;;;5115463;28;20477;-68
2021/06/22 14:34:10;;;;;;;5.07;3.27;;;21.80;99.90;;;;;;5114508;28;20991;-68
2021/06/22 14:36:36;;;;;;;3.13;2.83;;;21.60;99.90;;;;;;5111820;28;21055;-68
2021/06/22 14:39:03;;;;;;;4.03;3.27;;;21.60;99.90;;;;;;5115086;27;20472;-68
2021/06/22 14:41:30;;;;;;;3.10;2.90;;;21.50;99.90;;;;;;5114332;27;20488;-68
2021/06/22 14:43:57;;;;;;;3.50;3.30;;;21.40;99.90;;;;;;5114735;28;20464;-70
2021/06/22 14:46:27;;;;;;;5.63;3.90;;;21.30;99.90;;;;;;5115222;28;20488;-69
2021/06/22 14:48:54;;;;;;;4.67;3.07;;;21.40;99.90;;;;;;5114849;28;20454;-69
2021/06/22 14:51:22;;;;;;;6.03;3.20;;;21.40;99.90;;;;;;5115582;28;20481;-70
2021/06/22 14:53:48;;;;;;;3.40;3.10;;;21.30;99.90;;;;;;5113785;28;20520;-70
2021/06/22 14:56:15;;;;;;;4.37;3.97;;;21.30;99.90;;;;;;5115260;28;20468;-71
2021/06/22 14:58:45;;;;;;;3.07;2.90;;;21.10;99.90;;;;;;5108209;28;20454;-70
2021/06/22 15:01:11;;;;;;;4.50;3.17;;;21.00;99.90;;;;;;5094356;28;20493;-71
2021/06/22 15:03:39;;;;;;;4.07;2.63;;;21.30;99.90;;;;;;5098349;28;20862;-70
2021/06/22 15:06:13;;;;;;;6.57;4.03;;;21.50;99.90;;;;;;5114431;28;20561;-70
2021/06/22 15:08:41;;;;;;;2.83;2.63;;;21.80;99.90;;;;;;5113873;28;20452;-70
2021/06/22 15:11:08;;;;;;;3.10;2.90;;;21.80;99.90;;;;;;5113929;27;20500;-70
2021/06/22 15:13:34;;;;;;;2.93;2.83;;;21.90;99.90;;;;;;5114176;28;20944;-71
2021/06/22 15:16:01;;;;;;;4.73;2.70;;;22.10;99.90;;;;;;5114626;28;20461;-71
2021/06/22 15:18:28;;;;;;;7.00;3.20;;;22.20;99.90;;;;;;5114214;28;20484;-71
2021/06/22 15:20:55;;;;;;;4.60;2.90;;;22.20;99.90;;;;;;5111226;28;20466;-71
2021/06/22 15:23:22;;;;;;;3.33;3.03;;;22.40;99.90;;;;;;5110869;28;20458;-70
2021/06/22 15:25:50;;;;;;;7.60;3.13;;;22.40;99.90;;;;;;5101017;28;20470;-70
2021/06/22 15:28:18;;;;;;;3.43;3.23;;;22.10;99.90;;;;;;5131458;28;20477;-71
2021/06/22 15:30:45;;;;;;;2.80;2.50;;;21.90;99.90;;;;;;5120562;28;20469;-70
2021/06/22 15:33:11;;;;;;;3.10;2.80;;;21.90;99.90;;;;;;5116827;27;20480;-71
2021/06/22 15:35:38;;;;;;;4.00;3.53;;;21.90;99.90;;;;;;5116436;27;20458;-71
2021/06/22 15:38:06;;;;;;;3.13;2.63;;;22.20;99.90;;;;;;5114594;28;20454;-70
2021/06/22 15:40:33;;;;;;;2.70;2.60;;;22.30;99.90;;;;;;5115791;28;20535;-72
2021/06/22 15:43:01;;;;;;;3.10;2.90;;;22.50;99.90;;;;;;5115017;28;20457;-73
2021/06/22 15:45:28;;;;;;;3.43;2.30;;;22.50;99.90;;;;;;5108557;27;20546;-70
2021/06/22 15:47:55;;;;;;;3.53;2.67;;;22.50;99.90;;;;;;5113645;27;20454;-68
2021/06/22 15:50:24;;;;;;;3.27;3.07;;;22.40;99.90;;;;;;5113544;28;20841;-68
2021/06/22 15:52:51;;;;;;;3.60;3.10;;;22.30;99.90;;;;;;5113757;27;20487;-68
2021/06/22 15:55:20;;;;;;;2.90;2.80;;;22.20;99.90;;;;;;5121209;27;20456;-68
2021/06/22 15:57:48;;;;;;;2.37;2.27;;;22.10;99.90;;;;;;5126940;27;20453;-68
2021/06/22 16:00:18;;;;;;;3.27;2.57;;;21.90;99.90;;;;;;5113610;28;20979;-68
2021/06/22 16:02:45;;;;;;;4.23;3.10;;;21.90;99.90;;;;;;5112304;28;20790;-68
2021/06/22 16:05:13;;;;;;;4.47;3.03;;;21.90;99.90;;;;;;5112163;28;20468;-70
2021/06/22 16:07:43;;;;;;;2.70;2.60;;;21.90;99.90;;;;;;5112678;28;20453;-69
2021/06/22 16:10:11;;;;;;;3.23;2.70;;;21.90;99.90;;;;;;5115277;27;20864;-69
2021/06/22 16:12:37;;;;;;;3.23;2.27;;;21.80;99.90;;;;;;5120516;27;20452;-66
2021/06/22 16:15:05;;;;;;;5.87;3.10;;;21.80;99.90;;;;;;5115420;27;20477;-67
2021/06/22 16:17:34;;;;;;;2.97;2.40;;;21.80;99.90;;;;;;5113259;28;20454;-68
2021/06/22 16:20:01;;;;;;;2.80;2.80;;;21.60;99.90;;;;;;5124967;27;20471;-69
2021/06/22 16:22:28;;;;;;;6.27;3.20;;;21.40;99.90;;;;;;5113132;28;20482;-68
2021/06/22 16:24:55;;;;;;;3.17;2.90;;;21.40;99.90;;;;;;5128396;27;20449;-68
2021/06/22 16:27:23;;;;;;;2.63;2.53;;;21.30;99.90;;;;;;5105880;27;20457;-67
2021/06/22 16:29:50;;;;;;;4.50;3.00;;;21.10;99.90;;;;;;5113727;27;20461;-68
2021/06/22 16:32:17;;;;;;;3.63;2.93;;;20.90;99.90;;;;;;5117871;27;20488;-71
2021/06/22 16:34:45;;;;;;;2.50;2.40;;;20.70;99.90;;;;;;5124553;27;20527;-71
2021/06/22 16:37:11;;;;;;;3.40;3.10;;;20.60;99.90;;;;;;5122468;27;20961;-71
2021/06/22 16:39:38;;;;;;;3.57;2.90;;;20.50;99.90;;;;;;5121618;27;20468;-71
2021/06/22 16:42:06;;;;;;;5.30;2.93;;;20.30;99.90;;;;;;5122543;27;20966;-70
2021/06/22 16:44:32;;;;;;;4.10;2.80;;;20.20;99.90;;;;;;5128433;27;20457;-71
2021/06/22 16:46:59;;;;;;;5.57;3.20;;;20.10;99.90;;;;;;5113044;28;20466;-70
2021/06/22 16:49:26;;;;;;;3.00;2.80;;;20.00;99.90;;;;;;5095191;28;20569;-69
2021/06/22 16:51:54;;;;;;;6.73;2.40;;;20.00;99.90;;;;;;5105517;28;20595;-69
2021/06/22 16:54:21;;;;;;;3.30;2.27;;;20.10;99.90;;;;;;5109888;28;20481;-70
2021/06/22 16:56:48;;;;;;;2.93;2.57;;;20.20;99.90;;;;;;5111283;27;20473;-71